KISO/ISO METAR and TAF weather

Enter ICAO airport designator
Station Type Date Time Source
KISO METAR 2020/10/29 16:56 UTC NOAA

KISO 291656Z 19020G33KT 10SM BKN031 OVC039 28/22 A2965


Station Type Date Time Source
KISO Decoded METAR 2020/10/29 16:56 UTC NOAA

Kinston, Kinston Regional Jetport at Stallings Field, NC, United States (KISO) 35-20N 077-37W
Oct 29, 2020 - 12:56 PM EDT / 2020.10.29 1656 UTC
Wind: from the S (190 degrees) at 23 MPH (20 KT) gusting to 38 MPH (33 KT):0
Visibility: 10 mile(s):0
Sky conditions: overcast
Temperature: 82 F (28 C)
Dew Point: 71 F (22 C)
Relative Humidity: 69%
Pressure (altimeter): 29.65 in. Hg (1004 hPa)
ob: KISO 291656Z 19020G33KT 10SM BKN031 OVC039 28/22 A2965
cycle: 17

Station Type Date Time Source
KISO TAF 2020/10/29 18:22 UTC NOAA

TAF KISO 291720Z 2918/3018 20025G40KT P6SM VCSH BKN040
FM292300 21017G29KT P6SM VCSH BKN030
FM300000 21016G26KT 6SM SHRA BKN060
TEMPO 3000/3002 4SM TSRA OVC025CB
FM300200 20014G23KT 6SM SHRA BKN025
FM300800 24016G26KT P6SM SCT035
AMD LTD TO CLD VIS AND WIND

Example: see airport list